首页
METAR-TAF:

METAR-TAF

机场 :

阿尔汉格尔斯克, 俄罗斯

纬度: 64-30N, 经度: 040-44E, 海拔: 13米

当前天气观测

该预报发布于46分钟前的06:30 UTC
风速4节,风向西转西北
温度 6°C
湿度 56%
气压 1025 hPa
能见度10公里或以上
少量云层高于3300英尺

METAR: ULAA 200630Z 30002MPS 9999 FEW033 06/M02 Q1025 R08/CLRD68 NOSIG RMK QFE767/1023

时间: 10:16 (07:16 UTC)

预报

该预报发布于2小时和16分钟前的05:00 UTC
预报有效从20日的 06点(UTC)到 21日的 06点(UTC)
风速6节,风向
能见度10公里或以上
散云层高于3000英尺
短暂存在
从 20日的 06点(UTC)到 20日的 18点(UTC)
风速8节,风向北转西北,有时为17节阵风
成为
从 21日的 00点(UTC)到 21日的 02点(UTC)
风速6节,风向东转东南

TAF: ULAA 200500Z 2006/2106 36003MPS 9999 SCT030 TEMPO 2006/2018 34004G09MPS BECMG 2100/2102 11003MPS

超过4000个机场的气象观测和天气预报(METAR&TAF报告)。

可查询的气象台以黄色和红色小点在地图上表示。

将鼠标移到小点上方,可查看气象台名称。

然后点击查看天气观测和预报。

如需切换地图:点击带黑十字的绿色按钮放大地图;点击带横线的绿色按钮缩小地图;或者点击绿色箭头查看邻近地区的地图。


METAR-TAF: